Time;durP1;ratioP1;P1;durP2;ratioP2;P2;SDS_P1;SDS_P2;PMS_P1;PMS_P2;Temp;Humidity;BMP_temperature;BMP_pressure;BME280_temperature;BME280_humidity;BME280_pressure;Samples;Min_cycle;Max_cycle;Signal;HPM_P1;HPM_P2
2024/01/22 00:00:06;;;;;;;56.90;13.85;;;;;;;;;;4905024;29;20119;-85
2024/01/22 00:02:53;;;;;;;65.25;15.25;;;;;;;;;;4878445;29;20080;-84
2024/01/22 00:05:20;;;;;;;58.45;16.35;;;;;;;;;;4884047;29;20109;-84
2024/01/22 00:07:47;;;;;;;62.78;15.32;;;;;;;;;;4885013;29;20060;-83
2024/01/22 00:10:13;;;;;;;46.78;13.95;;;;;;;;;;4885550;29;20137;-84
2024/01/22 00:12:40;;;;;;;51.47;14.15;;;;;;;;;;4886816;29;20064;-84
2024/01/22 00:15:07;;;;;;;46.78;14.27;;;;;;;;;;4880044;29;20498;-85
2024/01/22 00:17:34;;;;;;;64.38;14.30;;;;;;;;;;4888032;29;20435;-83
2024/01/22 00:20:03;;;;;;;39.03;13.05;;;;;;;;;;4882638;29;20132;-85
2024/01/22 00:22:29;;;;;;;60.13;15.10;;;;;;;;;;4886252;29;20751;-84
2024/01/22 00:24:56;;;;;;;51.42;14.07;;;;;;;;;;4873276;29;20575;-84
2024/01/22 00:27:22;;;;;;;50.33;14.05;;;;;;;;;;4884370;29;20052;-84
2024/01/22 00:29:49;;;;;;;65.43;14.82;;;;;;;;;;4885919;29;20159;-87
2024/01/22 00:32:16;;;;;;;62.67;16.17;;;;;;;;;;4880436;29;20056;-84
2024/01/22 00:34:42;;;;;;;50.55;15.50;;;;;;;;;;4899429;29;20060;-85
2024/01/22 00:37:09;;;;;;;63.25;13.68;;;;;;;;;;4908445;29;20127;-85
2024/01/22 00:39:37;;;;;;;78.78;16.45;;;;;;;;;;4905821;29;20108;-85
2024/01/22 00:42:04;;;;;;;45.58;14.82;;;;;;;;;;4905124;29;20036;-84
2024/01/22 00:44:31;;;;;;;80.63;17.20;;;;;;;;;;4910151;29;20084;-84
2024/01/22 00:46:57;;;;;;;53.30;15.77;;;;;;;;;;4902354;29;20112;-84
2024/01/22 00:49:24;;;;;;;70.30;16.48;;;;;;;;;;4908583;29;20054;-84
2024/01/22 00:51:51;;;;;;;91.43;17.27;;;;;;;;;;4905661;29;20040;-84
2024/01/22 00:54:17;;;;;;;100.03;17.92;;;;;;;;;;4905977;29;20040;-86
2024/01/22 00:56:44;;;;;;;53.45;14.73;;;;;;;;;;4908885;29;20052;-85
2024/01/22 00:59:10;;;;;;;81.25;16.25;;;;;;;;;;4904655;29;20152;-84
2024/01/22 01:01:37;;;;;;;74.10;16.70;;;;;;;;;;4910346;29;20527;-84
2024/01/22 01:04:04;;;;;;;57.15;15.15;;;;;;;;;;4900293;29;20032;-83
2024/01/22 01:06:31;;;;;;;78.97;18.27;;;;;;;;;;4904406;29;20040;-84
2024/01/22 01:08:57;;;;;;;65.28;17.02;;;;;;;;;;4903826;29;22445;-84
2024/01/22 01:11:24;;;;;;;66.95;15.82;;;;;;;;;;4903373;29;20063;-84
2024/01/22 01:13:50;;;;;;;76.53;16.15;;;;;;;;;;4908230;29;20058;-83
2024/01/22 01:16:17;;;;;;;48.80;13.20;;;;;;;;;;4901477;29;20067;-83
2024/01/22 01:18:43;;;;;;;44.90;13.80;;;;;;;;;;4907387;29;20055;-84
2024/01/22 01:21:10;;;;;;;79.65;16.15;;;;;;;;;;4904327;29;20049;-84
2024/01/22 01:23:37;;;;;;;70.10;15.98;;;;;;;;;;4906014;29;20044;-83
2024/01/22 01:26:05;;;;;;;48.63;15.23;;;;;;;;;;4889075;29;20040;-83
2024/01/22 01:28:32;;;;;;;58.75;15.20;;;;;;;;;;4885224;29;20079;-84
2024/01/22 01:30:59;;;;;;;62.60;15.23;;;;;;;;;;4907532;29;20051;-83
2024/01/22 01:33:26;;;;;;;54.75;17.00;;;;;;;;;;4899925;29;20076;-83
2024/01/22 01:35:52;;;;;;;77.68;15.70;;;;;;;;;;4907123;29;20057;-84
2024/01/22 01:38:19;;;;;;;59.85;16.05;;;;;;;;;;4907767;29;20043;-83
2024/01/22 01:40:45;;;;;;;52.75;13.10;;;;;;;;;;4889150;29;20079;-84
2024/01/22 01:43:14;;;;;;;52.03;13.90;;;;;;;;;;4909456;29;20127;-84
2024/01/22 01:45:40;;;;;;;61.40;16.60;;;;;;;;;;4902422;29;20060;-84
2024/01/22 01:48:07;;;;;;;47.53;13.43;;;;;;;;;;4911069;29;20064;-84
2024/01/22 01:50:35;;;;;;;56.83;15.13;;;;;;;;;;4903386;29;20044;-84
2024/01/22 01:53:01;;;;;;;49.58;14.38;;;;;;;;;;4906396;29;20131;-84
2024/01/22 01:55:28;;;;;;;77.40;15.60;;;;;;;;;;4910096;29;21028;-84
2024/01/22 01:57:55;;;;;;;58.92;15.48;;;;;;;;;;4904124;29;20132;-84
2024/01/22 02:03:06;;;;;;;61.50;14.30;;;;;;;;;;4861957;29;20415;-88
2024/01/22 02:05:32;;;;;;;98.70;16.38;;;;;;;;;;4861335;29;20059;-88
2024/01/22 02:08:00;;;;;;;67.60;16.38;;;;;;;;;;4867733;29;20068;-88
2024/01/22 02:10:27;;;;;;;76.90;15.52;;;;;;;;;;4868270;29;20565;-88
2024/01/22 02:12:55;;;;;;;104.90;19.15;;;;;;;;;;4865347;29;20102;-90
2024/01/22 02:15:21;;;;;;;79.97;17.23;;;;;;;;;;4868215;29;20109;-89
2024/01/22 02:17:48;;;;;;;75.03;15.73;;;;;;;;;;4860220;29;20055;-89
2024/01/22 02:20:15;;;;;;;98.63;18.35;;;;;;;;;;4866463;29;20037;-89
2024/01/22 02:22:42;;;;;;;60.17;15.77;;;;;;;;;;4848170;29;20053;-89
2024/01/22 02:25:08;;;;;;;68.63;16.52;;;;;;;;;;4864432;29;20060;-89
2024/01/22 02:27:35;;;;;;;95.90;17.30;;;;;;;;;;4865021;29;20045;-89
2024/01/22 02:30:01;;;;;;;72.18;16.58;;;;;;;;;;4863587;29;20504;-90
2024/01/22 02:32:28;;;;;;;64.03;15.05;;;;;;;;;;4867798;29;20054;-88
2024/01/22 02:34:55;;;;;;;100.20;17.05;;;;;;;;;;4844412;29;20050;-88
2024/01/22 02:37:21;;;;;;;60.20;14.80;;;;;;;;;;4868129;29;20045;-88
2024/01/22 02:39:48;;;;;;;61.75;15.15;;;;;;;;;;4863243;29;20046;-89
2024/01/22 02:42:15;;;;;;;80.47;16.02;;;;;;;;;;4865078;29;20048;-88
2024/01/22 02:44:42;;;;;;;51.90;14.57;;;;;;;;;;4866552;29;20053;-88
2024/01/22 02:47:08;;;;;;;53.50;14.85;;;;;;;;;;4846161;29;20042;-89
2024/01/22 02:49:35;;;;;;;103.68;16.67;;;;;;;;;;4849006;29;20394;-88
2024/01/22 02:52:02;;;;;;;59.05;14.90;;;;;;;;;;4866727;29;20045;-88
2024/01/22 02:54:30;;;;;;;98.10;14.85;;;;;;;;;;4869469;29;20106;-87
2024/01/22 02:56:56;;;;;;;121.00;18.65;;;;;;;;;;4866212;29;20049;-87
2024/01/22 02:59:23;;;;;;;87.30;16.15;;;;;;;;;;4883447;29;20053;-88
2024/01/22 03:01:50;;;;;;;71.97;16.15;;;;;;;;;;4893211;29;20133;-87
2024/01/22 03:04:16;;;;;;;103.72;17.65;;;;;;;;;;4888247;29;20045;-88
2024/01/22 03:06:43;;;;;;;72.40;14.18;;;;;;;;;;4872869;29;20064;-88
2024/01/22 03:09:10;;;;;;;43.30;12.45;;;;;;;;;;4891841;29;20029;-88
2024/01/22 03:11:36;;;;;;;70.07;14.40;;;;;;;;;;4890998;29;20057;-88
2024/01/22 03:14:03;;;;;;;43.00;12.32;;;;;;;;;;4879177;29;20041;-88
2024/01/22 03:16:30;;;;;;;64.20;13.98;;;;;;;;;;4865304;29;20041;-89
2024/01/22 03:18:56;;;;;;;80.78;14.07;;;;;;;;;;4873540;29;20494;-88
2024/01/22 03:21:23;;;;;;;68.95;13.45;;;;;;;;;;4865033;29;20050;-88
2024/01/22 03:23:50;;;;;;;68.35;13.57;;;;;;;;;;4868960;29;20053;-88
2024/01/22 03:26:20;;;;;;;99.18;15.18;;;;;;;;;;4867573;29;20041;-88
2024/01/22 03:28:57;;;;;;;62.03;14.77;;;;;;;;;;4865332;29;20105;-88
2024/01/22 03:31:25;;;;;;;59.38;14.13;;;;;;;;;;4864811;29;20057;-88
2024/01/22 03:33:52;;;;;;;92.07;14.15;;;;;;;;;;4864053;29;20057;-88
2024/01/22 03:36:20;;;;;;;80.85;14.20;;;;;;;;;;4867913;29;20421;-88
2024/01/22 03:38:47;;;;;;;63.65;13.93;;;;;;;;;;4868288;29;20058;-88
2024/01/22 03:41:13;;;;;;;78.95;14.05;;;;;;;;;;4862706;29;20041;-88
2024/01/22 03:43:41;;;;;;;90.07;14.20;;;;;;;;;;4864714;29;20647;-91
2024/01/22 03:46:08;;;;;;;66.65;12.02;;;;;;;;;;4865037;29;20480;-88
2024/01/22 03:48:35;;;;;;;62.42;11.95;;;;;;;;;;4861415;29;20057;-88
2024/01/22 03:51:02;;;;;;;57.78;13.68;;;;;;;;;;4866599;29;20048;-88
2024/01/22 03:53:29;;;;;;;93.00;13.45;;;;;;;;;;4863774;29;20405;-89
2024/01/22 03:55:55;;;;;;;77.28;14.05;;;;;;;;;;4863066;29;20573;-88
2024/01/22 03:58:22;;;;;;;57.47;12.15;;;;;;;;;;4863326;29;20045;-88
2024/01/22 04:00:48;;;;;;;86.47;14.27;;;;;;;;;;4861725;29;20041;-88
2024/01/22 04:03:15;;;;;;;75.50;13.18;;;;;;;;;;4861499;29;20477;-88
2024/01/22 04:05:42;;;;;;;62.67;12.10;;;;;;;;;;4859718;29;20049;-88
2024/01/22 04:08:09;;;;;;;49.85;11.48;;;;;;;;;;4873852;29;20413;-88
2024/01/22 04:10:35;;;;;;;97.70;14.40;;;;;;;;;;4869091;29;20081;-88
2024/01/22 04:13:02;;;;;;;58.22;12.80;;;;;;;;;;4873794;29;20045;-88
2024/01/22 04:15:29;;;;;;;64.05;13.48;;;;;;;;;;4869554;29;20045;-88
2024/01/22 04:17:56;;;;;;;100.90;14.27;;;;;;;;;;4870572;29;20105;-88
2024/01/22 04:20:22;;;;;;;70.35;13.82;;;;;;;;;;4869275;29;20492;-88
2024/01/22 04:22:50;;;;;;;67.05;13.95;;;;;;;;;;4867997;29;20128;-88
2024/01/22 04:25:17;;;;;;;94.30;14.75;;;;;;;;;;4863735;29;20049;-88
2024/01/22 04:27:43;;;;;;;71.60;13.98;;;;;;;;;;4865140;29;20049;-89
2024/01/22 04:30:11;;;;;;;68.68;12.57;;;;;;;;;;4845019;29;20502;-88
2024/01/22 04:32:38;;;;;;;72.32;9.70;;;;;;;;;;4860954;29;20136;-88
2024/01/22 04:35:04;;;;;;;77.50;13.68;;;;;;;;;;4861156;29;20049;-88
2024/01/22 04:37:31;;;;;;;98.18;14.15;;;;;;;;;;4870334;29;20069;-88
2024/01/22 04:40:09;;;;;;;81.22;12.65;;;;;;;;;;4858084;29;20517;-88
2024/01/22 04:42:35;;;;;;;71.45;12.65;;;;;;;;;;4868330;29;20445;-88
2024/01/22 04:45:02;;;;;;;70.40;12.77;;;;;;;;;;4865403;29;21071;-88
2024/01/22 04:47:28;;;;;;;96.28;14.38;;;;;;;;;;4864432;29;20033;-88
2024/01/22 04:49:55;;;;;;;52.22;12.55;;;;;;;;;;4869168;29;20042;-88
2024/01/22 04:52:21;;;;;;;79.70;13.30;;;;;;;;;;4860848;29;20110;-88
2024/01/22 04:54:48;;;;;;;104.15;14.65;;;;;;;;;;4867993;29;20093;-88
2024/01/22 04:57:14;;;;;;;64.45;12.35;;;;;;;;;;4865496;29;20132;-88
2024/01/22 04:59:41;;;;;;;78.25;12.98;;;;;;;;;;4860254;29;20244;-88
2024/01/22 05:02:08;;;;;;;112.53;15.48;;;;;;;;;;4866432;29;20498;-87
2024/01/22 05:04:34;;;;;;;54.17;11.57;;;;;;;;;;4865710;29;20064;-87
2024/01/22 05:07:01;;;;;;;85.07;13.57;;;;;;;;;;4867691;29;20041;-88
2024/01/22 05:09:27;;;;;;;105.32;14.20;;;;;;;;;;4866996;29;20604;-88
2024/01/22 05:11:54;;;;;;;53.63;11.05;;;;;;;;;;4860333;29;20045;-88
2024/01/22 05:14:23;;;;;;;61.97;12.15;;;;;;;;;;4873501;29;20049;-89
2024/01/22 05:16:49;;;;;;;98.13;14.13;;;;;;;;;;4864352;29;20041;-88
2024/01/22 05:19:16;;;;;;;58.80;10.95;;;;;;;;;;4859447;29;20053;-88
2024/01/22 05:21:42;;;;;;;68.07;12.73;;;;;;;;;;4867145;29;20041;-88
2024/01/22 05:24:09;;;;;;;84.60;12.80;;;;;;;;;;4860346;29;20413;-88
2024/01/22 05:26:35;;;;;;;41.55;9.93;;;;;;;;;;4853726;29;20057;-88
2024/01/22 05:29:02;;;;;;;66.43;11.73;;;;;;;;;;4865060;29;20132;-88
2024/01/22 05:31:29;;;;;;;83.93;13.93;;;;;;;;;;4844677;29;20041;-88
2024/01/22 05:33:55;;;;;;;49.50;11.55;;;;;;;;;;4871149;29;20041;-88
2024/01/22 05:36:23;;;;;;;61.75;12.38;;;;;;;;;;4863060;29;20405;-88
2024/01/22 05:38:49;;;;;;;87.47;13.07;;;;;;;;;;4864752;29;20509;-88
2024/01/22 05:41:16;;;;;;;42.40;9.85;;;;;;;;;;4863123;29;20057;-88
2024/01/22 05:43:42;;;;;;;80.50;12.52;;;;;;;;;;4860736;29;20045;-88
2024/01/22 05:46:09;;;;;;;73.85;12.32;;;;;;;;;;4866798;29;20475;-88
2024/01/22 05:48:36;;;;;;;65.32;11.90;;;;;;;;;;4865260;29;20127;-88
2024/01/22 05:51:05;;;;;;;41.72;9.32;;;;;;;;;;4863246;29;20453;-87
2024/01/22 05:53:31;;;;;;;80.60;11.13;;;;;;;;;;4870527;29;20045;-88
2024/01/22 05:55:58;;;;;;;53.40;11.50;;;;;;;;;;4863165;29;20045;-88
2024/01/22 05:58:24;;;;;;;58.28;10.35;;;;;;;;;;4866964;29;20045;-88
2024/01/22 06:00:51;;;;;;;71.20;10.90;;;;;;;;;;4864651;29;20706;-88
2024/01/22 06:03:18;;;;;;;63.60;11.10;;;;;;;;;;4864803;29;20504;-87
2024/01/22 06:05:45;;;;;;;93.40;12.70;;;;;;;;;;4867508;29;20052;-88
2024/01/22 06:08:12;;;;;;;79.18;11.75;;;;;;;;;;4864531;29;20038;-90
2024/01/22 06:10:38;;;;;;;46.08;10.20;;;;;;;;;;4867652;29;20033;-88
2024/01/22 06:13:05;;;;;;;43.58;9.63;;;;;;;;;;4867291;29;20075;-87
2024/01/22 06:15:32;;;;;;;77.07;12.45;;;;;;;;;;4859083;29;20046;-88
2024/01/22 06:17:59;;;;;;;54.25;10.73;;;;;;;;;;4869460;29;20450;-87
2024/01/22 06:20:26;;;;;;;54.45;10.50;;;;;;;;;;4863142;29;20672;-87
2024/01/22 06:22:54;;;;;;;53.05;10.98;;;;;;;;;;4865707;29;20052;-88
2024/01/22 06:25:20;;;;;;;58.90;11.38;;;;;;;;;;4869915;29;20037;-88
2024/01/22 06:27:47;;;;;;;48.70;10.13;;;;;;;;;;4864788;29;20160;-88
2024/01/22 06:30:15;;;;;;;40.35;10.13;;;;;;;;;;4868113;29;20047;-88
2024/01/22 06:32:42;;;;;;;51.88;10.23;;;;;;;;;;4863896;29;20131;-87
2024/01/22 06:35:09;;;;;;;50.35;9.05;;;;;;;;;;4868256;29;20481;-88
2024/01/22 06:37:36;;;;;;;82.80;11.10;;;;;;;;;;4869833;29;20049;-87
2024/01/22 06:40:02;;;;;;;70.57;11.35;;;;;;;;;;4863702;29;20050;-87
2024/01/22 06:42:30;;;;;;;39.97;9.65;;;;;;;;;;4868507;29;20049;-87
2024/01/22 06:45:05;;;;;;;74.72;11.38;;;;;;;;;;4869448;29;20045;-88
2024/01/22 06:47:34;;;;;;;62.33;11.00;;;;;;;;;;4863645;29;20049;-87
2024/01/22 06:50:01;;;;;;;42.42;7.85;;;;;;;;;;4870472;29;20443;-89
2024/01/22 06:52:28;;;;;;;85.57;13.00;;;;;;;;;;4864700;29;20064;-87
2024/01/22 06:54:56;;;;;;;48.22;9.98;;;;;;;;;;4865310;29;20060;-87
2024/01/22 06:57:22;;;;;;;50.20;9.68;;;;;;;;;;4870053;29;20043;-87
2024/01/22 06:59:49;;;;;;;82.07;11.57;;;;;;;;;;4863449;29;20532;-87
2024/01/22 07:02:19;;;;;;;51.85;9.52;;;;;;;;;;4868120;29;20053;-87
2024/01/22 07:04:46;;;;;;;44.85;9.35;;;;;;;;;;4867566;29;20045;-86
2024/01/22 07:07:13;;;;;;;81.80;11.18;;;;;;;;;;4861655;29;20124;-87
2024/01/22 07:09:42;;;;;;;67.47;10.70;;;;;;;;;;4864771;29;20207;-87
2024/01/22 07:12:09;;;;;;;38.75;8.30;;;;;;;;;;4864012;29;20041;-87
2024/01/22 07:14:39;;;;;;;78.38;8.98;;;;;;;;;;4868737;29;20056;-87
2024/01/22 07:17:06;;;;;;;56.40;9.88;;;;;;;;;;4867221;29;20053;-87
2024/01/22 07:19:33;;;;;;;65.05;10.20;;;;;;;;;;4863767;29;20489;-87
2024/01/22 07:22:00;;;;;;;81.00;10.27;;;;;;;;;;4869094;29;20057;-88
2024/01/22 07:24:27;;;;;;;75.72;11.45;;;;;;;;;;4862327;29;20462;-88
2024/01/22 07:26:54;;;;;;;77.63;10.40;;;;;;;;;;4864620;29;20037;-85
2024/01/22 07:29:21;;;;;;;83.43;10.73;;;;;;;;;;4868765;29;20090;-87
2024/01/22 07:31:48;;;;;;;52.58;8.05;;;;;;;;;;4861357;29;20041;-87
2024/01/22 07:34:14;;;;;;;63.05;9.40;;;;;;;;;;4864967;29;20093;-88
2024/01/22 07:36:41;;;;;;;84.00;11.45;;;;;;;;;;4863602;29;20128;-87
2024/01/22 07:39:08;;;;;;;58.08;9.45;;;;;;;;;;4866879;29;20536;-87
2024/01/22 07:41:36;;;;;;;47.40;9.27;;;;;;;;;;4866947;29;20042;-87
2024/01/22 07:44:03;;;;;;;99.30;11.20;;;;;;;;;;4863595;29;20049;-87
2024/01/22 07:46:30;;;;;;;47.60;9.68;;;;;;;;;;4867675;29;20066;-87
2024/01/22 07:48:57;;;;;;;60.08;10.77;;;;;;;;;;4867211;29;20056;-86
2024/01/22 07:51:24;;;;;;;54.00;11.40;;;;;;;;;;4865346;29;20042;-87
2024/01/22 07:53:51;;;;;;;46.30;9.75;;;;;;;;;;4886680;29;20025;-87
2024/01/22 07:56:17;;;;;;;63.17;10.07;;;;;;;;;;4888384;29;20018;-87
2024/01/22 07:58:45;;;;;;;84.18;10.60;;;;;;;;;;4893842;29;20040;-87
2024/01/22 08:01:12;;;;;;;41.63;8.55;;;;;;;;;;4890670;29;20028;-87
2024/01/22 08:03:38;;;;;;;101.18;11.43;;;;;;;;;;4886542;29;20068;-87
2024/01/22 08:06:06;;;;;;;28.88;7.85;;;;;;;;;;4897236;29;20025;-86
2024/01/22 08:08:35;;;;;;;73.82;10.45;;;;;;;;;;4868475;29;20517;-89
2024/01/22 08:11:02;;;;;;;53.03;9.45;;;;;;;;;;4868615;29;20081;-86
2024/01/22 08:13:29;;;;;;;96.97;10.77;;;;;;;;;;4852874;29;20045;-87
2024/01/22 08:15:55;;;;;;;62.78;8.32;;;;;;;;;;4859760;29;20073;-88
2024/01/22 08:18:22;;;;;;;70.55;10.10;;;;;;;;;;4859877;29;20045;-88
2024/01/22 08:20:49;;;;;;;110.60;11.38;;;;;;;;;;4849705;29;20494;-88
2024/01/22 08:23:16;;;;;;;47.05;9.13;;;;;;;;;;4864801;29;20049;-88
2024/01/22 08:25:43;;;;;;;112.22;11.95;;;;;;;;;;4864230;29;20068;-90
2024/01/22 08:28:11;;;;;;;166.40;14.63;;;;;;;;;;4865413;29;20043;-90
2024/01/22 08:30:38;;;;;;;82.97;9.90;;;;;;;;;;4871815;29;20052;-93
2024/01/22 08:33:04;;;;;;;169.13;16.63;;;;;;;;;;4868148;29;20130;-90
2024/01/22 08:35:31;;;;;;;282.33;20.92;;;;;;;;;;4962332;23;20021;-91
2024/01/22 08:40:56;;;;;;;141.23;13.52;;;;;;;;;;4884026;29;20072;-93
2024/01/22 08:43:26;;;;;;;75.32;9.35;;;;;;;;;;4834724;29;20102;-91
2024/01/22 08:46:04;;;;;;;86.22;10.43;;;;;;;;;;4857634;29;20045;-93
2024/01/22 08:48:32;;;;;;;69.78;9.00;;;;;;;;;;4890900;29;20382;-91
2024/01/22 08:51:19;;;;;;;67.78;10.13;;;;;;;;;;4857005;29;20059;-94
2024/01/22 08:53:46;;;;;;;;;;;;;;;;;;4861123;29;20105;-91
2024/01/22 08:56:13;;;;;;;73.72;9.10;;;;;;;;;;4871989;29;19966;-91
2024/01/22 08:58:40;;;;;;;119.95;12.43;;;;;;;;;;4872568;29;20121;-91
2024/01/22 09:01:07;;;;;;;55.78;8.77;;;;;;;;;;4872229;29;20061;-91
2024/01/22 09:03:37;;;;;;;55.72;8.88;;;;;;;;;;4866850;29;20084;-91
2024/01/22 09:06:05;;;;;;;102.68;10.88;;;;;;;;;;4870387;29;20037;-91
2024/01/22 09:08:34;;;;;;;76.85;10.75;;;;;;;;;;4871234;29;20049;-89
2024/01/22 09:11:02;;;;;;;73.05;9.57;;;;;;;;;;4872183;29;20103;-91
2024/01/22 09:14:03;;;;;;;129.02;13.00;;;;;;;;;;4856359;29;20048;-90
2024/01/22 09:16:38;;;;;;;127.38;12.45;;;;;;;;;;4858489;29;20053;-93
2024/01/22 09:19:30;;;;;;;78.18;8.65;;;;;;;;;;4839430;29;20060;-92
2024/01/22 09:25:26;;;;;;;263.63;19.95;;;;;;;;;;4874332;29;20064;-93
2024/01/22 09:28:31;;;;;;;;;;;;;;;;;;;;;
2024/01/22 09:31:23;;;;;;;201.98;14.77;;;;;;;;;;4882222;29;20039;-92
2024/01/22 09:33:53;;;;;;;113.90;11.95;;;;;;;;;;4888527;29;20048;-91
2024/01/22 09:36:56;;;;;;;150.20;15.00;;;;;;;;;;4890791;29;20037;-92
2024/01/22 09:39:44;;;;;;;;;;;;;;;;;;;;;
2024/01/22 09:43:06;;;;;;;;;;;;;;;;;;;;;
2024/01/22 09:46:29;;;;;;;;;;;;;;;;;;;;;
2024/01/22 10:02:15;;;;;;;153.52;13.63;;;;;;;;;;4659123;30;20093;-89
2024/01/22 10:05:29;;;;;;;106.20;11.68;;;;;;;;;;4622656;30;20065;-92
2024/01/22 10:12:03;;;;;;;138.43;14.15;;;;;;;;;;4622299;30;20071;-90
2024/01/22 10:14:40;;;;;;;;;;;;;;;;;;;;;
2024/01/22 10:17:18;;;;;;;37.83;6.93;;;;;;;;;;4632432;30;20164;-89
2024/01/22 10:20:04;;;;;;;;;;;;;;;;;;;;;
2024/01/22 10:30:17;;;;;;;72.40;10.30;;;;;;;;;;4570770;31;20556;-91
2024/01/22 10:33:16;;;;;;;66.82;10.15;;;;;;;;;;4652484;30;20540;-89
2024/01/22 10:35:45;;;;;;;53.30;8.10;;;;;;;;;;4706856;30;20509;-91
2024/01/22 10:38:16;;;;;;;137.07;11.32;;;;;;;;;;4702319;30;20059;-91
2024/01/22 10:40:44;;;;;;;84.32;9.48;;;;;;;;;;4760353;30;20044;-91
2024/01/22 10:43:20;;;;;;;38.33;6.72;;;;;;;;;;4753807;30;20536;-90
2024/01/22 10:45:48;;;;;;;83.60;14.75;;;;;;;;;;4748590;30;20064;-90
2024/01/22 10:48:17;;;;;;;46.38;7.35;;;;;;;;;;4742920;30;20119;-89
2024/01/22 10:50:58;;;;;;;77.18;9.02;;;;;;;;;;4752655;30;20055;-90
2024/01/22 10:53:25;;;;;;;83.85;9.15;;;;;;;;;;4749665;30;20589;-91
2024/01/22 10:56:04;;;;;;;75.25;8.63;;;;;;;;;;4747696;30;20483;-90
2024/01/22 10:58:39;;;;;;;99.15;12.25;;;;;;;;;;4747476;30;20056;-91
2024/01/22 11:01:09;;;;;;;90.00;11.30;;;;;;;;;;4752307;30;20098;-90
2024/01/22 11:03:38;;;;;;;75.85;10.82;;;;;;;;;;4737915;30;20198;-92
2024/01/22 11:06:07;;;;;;;101.15;11.30;;;;;;;;;;4763119;29;21115;-91
2024/01/22 11:08:35;;;;;;;67.20;12.98;;;;;;;;;;4822402;29;20053;-91
2024/01/22 11:11:02;;;;;;;90.15;12.00;;;;;;;;;;4815157;29;20406;-91
2024/01/22 11:13:29;;;;;;;95.90;12.18;;;;;;;;;;4810530;29;20046;-87
2024/01/22 11:15:56;;;;;;;62.92;9.73;;;;;;;;;;4808595;29;20257;-85
2024/01/22 11:18:24;;;;;;;88.15;14.63;;;;;;;;;;4812729;29;20057;-84
2024/01/22 11:20:56;;;;;;;63.95;12.95;;;;;;;;;;4815944;29;20050;-87
2024/01/22 11:23:23;;;;;;;52.55;9.68;;;;;;;;;;4811584;29;20259;-86
2024/01/22 11:25:59;;;;;;;71.28;10.13;;;;;;;;;;4817044;29;20412;-86
2024/01/22 11:28:27;;;;;;;79.80;11.40;;;;;;;;;;4813814;29;20131;-87
2024/01/22 11:30:53;;;;;;;51.53;12.65;;;;;;;;;;4811441;29;20039;-86
2024/01/22 11:33:23;;;;;;;85.25;12.05;;;;;;;;;;4809323;29;20051;-87
2024/01/22 11:35:50;;;;;;;45.78;8.27;;;;;;;;;;4812358;29;20074;-87
2024/01/22 11:38:48;;;;;;;43.75;7.95;;;;;;;;;;4817846;29;20533;-86
2024/01/22 11:41:20;;;;;;;47.35;9.82;;;;;;;;;;4806592;29;20067;-86
2024/01/22 11:43:47;;;;;;;100.18;15.88;;;;;;;;;;4811436;29;20054;-86
2024/01/22 11:46:16;;;;;;;53.08;11.15;;;;;;;;;;4816593;29;20452;-86
2024/01/22 11:48:43;;;;;;;60.15;12.23;;;;;;;;;;4810748;29;20046;-86
2024/01/22 11:51:11;;;;;;;96.90;23.27;;;;;;;;;;4808390;29;21097;-86
2024/01/22 11:53:51;;;;;;;119.25;25.58;;;;;;;;;;4813768;29;20055;-86
2024/01/22 11:56:23;;;;;;;108.05;19.33;;;;;;;;;;4801514;29;20047;-87
2024/01/22 11:59:00;;;;;;;59.42;12.60;;;;;;;;;;4808437;29;20074;-87
2024/01/22 12:01:27;;;;;;;57.58;13.73;;;;;;;;;;4815510;29;20058;-87
2024/01/22 12:03:54;;;;;;;90.90;13.07;;;;;;;;;;4818626;29;20559;-87
2024/01/22 12:06:24;;;;;;;46.55;11.90;;;;;;;;;;4807636;29;20483;-87
2024/01/22 12:08:59;;;;;;;71.35;16.02;;;;;;;;;;4810032;29;20053;-87
2024/01/22 12:11:35;;;;;;;71.57;15.30;;;;;;;;;;4814759;29;20038;-87
2024/01/22 12:14:01;;;;;;;50.58;9.30;;;;;;;;;;4811013;29;20122;-87
2024/01/22 12:16:28;;;;;;;84.22;11.73;;;;;;;;;;4810270;29;20156;-87
2024/01/22 12:19:09;;;;;;;66.93;12.25;;;;;;;;;;4813998;29;20125;-87
2024/01/22 12:21:37;;;;;;;81.70;11.40;;;;;;;;;;4811491;29;20104;-86
2024/01/22 12:24:14;;;;;;;54.75;11.05;;;;;;;;;;4807878;29;20049;-87
2024/01/22 12:26:41;;;;;;;59.88;10.70;;;;;;;;;;4811402;29;20046;-86
2024/01/22 12:29:18;;;;;;;72.40;14.60;;;;;;;;;;4814885;29;20106;-86
2024/01/22 12:31:44;;;;;;;64.45;12.95;;;;;;;;;;4815520;29;20035;-86
2024/01/22 12:34:11;;;;;;;77.45;11.40;;;;;;;;;;4816989;29;20023;-86
2024/01/22 12:36:38;;;;;;;38.90;10.43;;;;;;;;;;4821259;29;20127;-86
2024/01/22 12:39:06;;;;;;;56.95;11.27;;;;;;;;;;4812651;29;20127;-86
2024/01/22 12:41:33;;;;;;;51.75;9.95;;;;;;;;;;4810305;29;20115;-87
2024/01/22 12:43:59;;;;;;;44.35;8.57;;;;;;;;;;4798534;29;20055;-86
2024/01/22 12:46:26;;;;;;;57.10;9.18;;;;;;;;;;4797030;29;20142;-86
2024/01/22 12:48:55;;;;;;;62.97;8.65;;;;;;;;;;4787398;29;20050;-86
2024/01/22 12:51:25;;;;;;;49.60;7.20;;;;;;;;;;4795578;29;20576;-85
2024/01/22 12:53:52;;;;;;;51.08;7.70;;;;;;;;;;4797871;29;20058;-86
2024/01/22 12:56:18;;;;;;;73.75;9.57;;;;;;;;;;4792575;29;20498;-86
2024/01/22 12:58:45;;;;;;;55.13;9.07;;;;;;;;;;4790294;29;20628;-86
2024/01/22 13:01:12;;;;;;;59.20;8.57;;;;;;;;;;4793892;29;20054;-86
2024/01/22 13:03:39;;;;;;;68.55;9.10;;;;;;;;;;4794215;29;20051;-87
2024/01/22 13:06:06;;;;;;;42.60;8.15;;;;;;;;;;4787999;29;20049;-86
2024/01/22 13:08:34;;;;;;;55.60;8.18;;;;;;;;;;4792106;29;20038;-86
2024/01/22 13:11:02;;;;;;;75.78;9.63;;;;;;;;;;4793802;29;20051;-86
2024/01/22 13:13:29;;;;;;;63.42;9.20;;;;;;;;;;4788358;29;20047;-87
2024/01/22 13:15:55;;;;;;;40.08;7.45;;;;;;;;;;4789994;29;20602;-87
2024/01/22 13:18:43;;;;;;;54.22;8.32;;;;;;;;;;4794671;29;20055;-87
2024/01/22 13:21:13;;;;;;;56.97;8.13;;;;;;;;;;4791718;29;20071;-88
2024/01/22 13:23:40;;;;;;;79.63;9.45;;;;;;;;;;4790859;29;20082;-86
2024/01/22 13:26:08;;;;;;;32.45;7.15;;;;;;;;;;4793278;29;20051;-87
2024/01/22 13:28:36;;;;;;;38.58;7.78;;;;;;;;;;4805040;29;20054;-88
2024/01/22 13:31:03;;;;;;;93.50;10.18;;;;;;;;;;4804681;29;20388;-84
2024/01/22 13:33:29;;;;;;;74.57;9.07;;;;;;;;;;4810613;29;20129;-86
2024/01/22 13:35:57;;;;;;;50.92;8.13;;;;;;;;;;4814929;29;20133;-87
2024/01/22 13:38:25;;;;;;;70.15;8.52;;;;;;;;;;4817369;29;20062;-87
2024/01/22 13:40:52;;;;;;;59.72;7.68;;;;;;;;;;4806515;29;20874;-87
2024/01/22 13:43:19;;;;;;;54.78;7.90;;;;;;;;;;4812892;29;20051;-88
2024/01/22 13:45:46;;;;;;;91.07;10.27;;;;;;;;;;4798764;29;20057;-88
2024/01/22 13:48:22;;;;;;;64.30;9.80;;;;;;;;;;4804279;29;20050;-87
2024/01/22 13:50:51;;;;;;;35.35;7.68;;;;;;;;;;4810826;29;20047;-88
2024/01/22 13:53:18;;;;;;;76.47;9.20;;;;;;;;;;4797595;29;20091;-87
2024/01/22 13:55:45;;;;;;;79.78;10.23;;;;;;;;;;4805614;29;20055;-88
2024/01/22 13:58:11;;;;;;;60.15;8.93;;;;;;;;;;4796864;29;20087;-87
2024/01/22 14:00:38;;;;;;;97.70;10.93;;;;;;;;;;4784236;29;20137;-88
2024/01/22 14:03:06;;;;;;;58.30;8.50;;;;;;;;;;4854512;29;20049;-88
2024/01/22 14:05:33;;;;;;;71.85;9.70;;;;;;;;;;4864419;29;20449;-88
2024/01/22 14:08:02;;;;;;;105.38;10.52;;;;;;;;;;4867718;29;20041;-89
2024/01/22 14:10:29;;;;;;;50.28;8.18;;;;;;;;;;4856093;29;20037;-89
2024/01/22 14:12:56;;;;;;;57.65;7.90;;;;;;;;;;4863804;29;20102;-88
2024/01/22 14:15:23;;;;;;;109.85;11.32;;;;;;;;;;4864074;29;20053;-87
2024/01/22 14:17:50;;;;;;;51.33;7.43;;;;;;;;;;4854356;29;20065;-88
2024/01/22 14:20:17;;;;;;;48.00;7.40;;;;;;;;;;4840307;29;20118;-88
2024/01/22 14:22:44;;;;;;;70.50;8.98;;;;;;;;;;4866154;29;20045;-88
2024/01/22 14:25:12;;;;;;;63.70;8.23;;;;;;;;;;4874170;29;20093;-89
2024/01/22 14:27:40;;;;;;;87.55;10.10;;;;;;;;;;4853839;29;20049;-89
2024/01/22 14:30:08;;;;;;;170.88;15.98;;;;;;;;;;4855195;29;20049;-88
2024/01/22 14:32:35;;;;;;;132.38;12.23;;;;;;;;;;4850225;29;20475;-88
2024/01/22 14:35:05;;;;;;;87.18;8.85;;;;;;;;;;4856164;29;20110;-88
2024/01/22 14:37:31;;;;;;;104.00;11.05;;;;;;;;;;4846922;29;20041;-88
2024/01/22 14:39:59;;;;;;;114.47;12.63;;;;;;;;;;4866258;29;20143;-88
2024/01/22 14:42:25;;;;;;;77.72;8.65;;;;;;;;;;4858568;29;20073;-91
2024/01/22 14:44:52;;;;;;;49.80;7.70;;;;;;;;;;4860695;29;20045;-91
2024/01/22 14:47:19;;;;;;;48.80;7.78;;;;;;;;;;4861028;29;20038;-86
2024/01/22 14:49:46;;;;;;;62.90;8.35;;;;;;;;;;4860290;29;20148;-85
2024/01/22 14:52:12;;;;;;;65.72;8.30;;;;;;;;;;4860067;29;20049;-85
2024/01/22 14:54:41;;;;;;;41.72;7.53;;;;;;;;;;4858833;29;20053;-85
2024/01/22 14:57:08;;;;;;;37.05;7.55;;;;;;;;;;4861418;29;20528;-86
2024/01/22 14:59:35;;;;;;;100.22;10.48;;;;;;;;;;4865327;29;20033;-86
2024/01/22 15:02:02;;;;;;;52.50;9.07;;;;;;;;;;4862990;29;20137;-85
2024/01/22 15:04:29;;;;;;;44.95;8.65;;;;;;;;;;4859046;29;20436;-85
2024/01/22 15:06:55;;;;;;;72.40;9.05;;;;;;;;;;4860358;29;20052;-85
2024/01/22 15:09:22;;;;;;;78.93;10.27;;;;;;;;;;4858115;29;20049;-85